Time;durP1;ratioP1;P1;durP2;ratioP2;P2;SDS_P1;SDS_P2;PMS_P1;PMS_P2;Temp;Humidity;BMP_temperature;BMP_pressure;BME280_temperature;BME280_humidity;BME280_pressure;Samples;Min_cycle;Max_cycle;Signal;HPM_P1;HPM_P2
2021/11/20 00:01:11;;;;;;;6.65;6.05;;;;;;;10.01;92.10;103015.25;5027618;28;20039;-82
2021/11/20 00:03:38;;;;;;;7.50;6.80;;;;;;;10.00;91.79;103019.59;5027911;28;20048;-82
2021/11/20 00:06:04;;;;;;;7.15;6.30;;;;;;;10.00;91.94;103016.97;5029860;28;20040;-82
2021/11/20 00:08:29;;;;;;;9.02;6.82;;;;;;;10.01;91.85;103016.09;5045735;28;20035;-82
2021/11/20 00:10:58;;;;;;;6.95;6.32;;;;;;;10.01;91.98;103021.34;5046307;28;20291;-82
2021/11/20 00:13:23;;;;;;;7.60;6.63;;;;;;;10.02;91.77;103019.59;5029128;28;20036;-82
2021/11/20 00:15:51;;;;;;;11.10;6.90;;;;;;;10.02;91.80;103014.34;5042530;28;20029;-82
2021/11/20 00:18:17;;;;;;;12.00;7.40;;;;;;;10.02;91.75;103011.72;5029170;28;20036;-82
2021/11/20 00:20:48;;;;;;;10.90;8.13;;;;;;;10.01;91.98;102991.69;5028479;28;20627;-82
2021/11/20 00:23:16;;;;;;;9.20;7.35;;;;;;;10.02;91.60;103007.34;5012688;28;20079;-82
2021/11/20 00:25:48;;;;;;;15.63;7.78;;;;;;;10.01;91.84;103016.09;5028556;28;20371;-82
2021/11/20 00:28:19;;;;;;;12.70;8.20;;;;;;;10.02;91.65;103003.88;5045594;28;20091;-82
2021/11/20 00:30:57;;;;;;;11.43;8.30;;;;;;;10.03;91.85;102990.78;5029174;28;20256;-82
2021/11/20 00:33:26;;;;;;;11.30;7.65;;;;;;;10.03;91.74;102988.16;5029433;28;20155;-82
2021/11/20 00:35:54;;;;;;;;;;;;;;;10.03;91.93;103000.41;5017932;28;20098;-82
2021/11/20 00:38:20;;;;;;;9.00;7.25;;;;;;;10.03;91.62;103003.88;5043363;28;20011;-82
2021/11/20 00:40:49;;;;;;;11.77;7.93;;;;;;;10.03;91.76;102992.53;5028646;28;20059;-82
2021/11/20 00:43:15;;;;;;;12.00;8.65;;;;;;;10.02;91.78;102985.56;5027972;28;20320;-82
2021/11/20 00:45:41;;;;;;;11.48;9.38;;;;;;;10.03;91.49;103003.03;5027392;28;20359;-82
2021/11/20 00:48:07;;;;;;;12.60;8.90;;;;;;;10.02;91.63;103004.75;5028094;28;20048;-82
2021/11/20 00:50:33;;;;;;;12.27;9.32;;;;;;;10.02;91.45;102989.03;5028139;28;20379;-82
2021/11/20 00:52:59;;;;;;;12.18;9.35;;;;;;;10.02;91.63;102981.19;5045440;28;20036;-82
2021/11/20 00:55:26;;;;;;;14.65;9.00;;;;;;;10.02;91.58;102978.56;5027490;28;20043;-82
2021/11/20 00:57:53;;;;;;;14.63;9.40;;;;;;;10.02;91.70;102982.94;5045516;28;20268;-82
2021/11/20 01:00:20;;;;;;;10.43;8.45;;;;;;;10.02;91.67;102991.66;5040447;28;20049;-82
2021/11/20 01:02:45;;;;;;;12.63;9.10;;;;;;;10.03;91.54;102990.78;5041425;28;20386;-82
2021/11/20 01:05:11;;;;;;;13.45;9.40;;;;;;;10.03;91.57;103000.41;5041106;28;20022;-82
2021/11/20 01:07:37;;;;;;;15.45;10.05;;;;;;;10.04;91.70;102991.66;5024528;28;20104;-82
2021/11/20 01:10:05;;;;;;;11.88;9.43;;;;;;;10.05;91.77;102986.41;5024697;28;20357;-82
2021/11/20 01:12:31;;;;;;;11.43;10.23;;;;;;;10.02;91.64;102983.78;5022458;28;20412;-82
2021/11/20 01:14:57;;;;;;;11.68;9.82;;;;;;;10.05;91.48;102991.66;5022910;28;20036;-82
2021/11/20 01:17:23;;;;;;;13.57;10.75;;;;;;;10.04;91.86;102989.03;5040412;28;20536;-82
2021/11/20 01:19:49;;;;;;;10.80;9.48;;;;;;;10.03;91.48;102977.69;5025013;28;20034;-82
2021/11/20 01:22:15;;;;;;;13.05;9.65;;;;;;;10.04;91.52;102973.31;5024216;28;20089;-82
2021/11/20 01:24:41;;;;;;;16.92;10.95;;;;;;;10.05;91.51;102977.69;5024090;28;20041;-82
2021/11/20 01:27:07;;;;;;;15.93;9.63;;;;;;;10.05;91.82;102972.47;5008237;28;20075;-82
2021/11/20 01:29:32;;;;;;;13.82;10.38;;;;;;;10.05;91.83;102972.47;5046718;28;20036;-82
2021/11/20 01:31:58;;;;;;;14.32;10.27;;;;;;;10.03;91.91;102967.22;5040827;28;20037;-82
2021/11/20 01:34:23;;;;;;;13.95;10.75;;;;;;;10.05;91.64;102975.94;5013370;28;20040;-82
2021/11/20 01:36:50;;;;;;;15.77;12.13;;;;;;;10.04;91.76;102976.84;5040998;28;20040;-82
2021/11/20 01:39:18;;;;;;;14.45;11.43;;;;;;;10.04;91.60;102973.31;5024480;28;20069;-82
2021/11/20 01:41:44;;;;;;;18.40;12.52;;;;;;;10.02;91.77;102970.72;5024282;28;20248;-82
2021/11/20 01:44:21;;;;;;;18.02;11.82;;;;;;;10.03;91.48;102968.97;5023760;28;20061;-82
2021/11/20 01:46:49;;;;;;;18.38;12.10;;;;;;;10.02;91.49;102965.47;5041140;28;20044;-82
2021/11/20 01:49:16;;;;;;;20.83;13.07;;;;;;;10.02;91.39;102959.38;5007972;28;20108;-82
2021/11/20 01:51:49;;;;;;;18.45;12.77;;;;;;;10.01;91.29;102955.03;5031114;28;20051;-82
2021/11/20 01:54:58;;;;;;;17.42;12.38;;;;;;;10.01;91.34;102955.91;5019816;28;20041;-82
2021/11/20 01:57:27;;;;;;;24.33;13.27;;;;;;;10.02;91.72;102955.00;5010203;28;20045;-82
2021/11/20 02:00:15;;;;;;;20.17;12.98;;;;;;;10.02;91.21;102952.38;5040689;28;20041;-82
2021/11/20 02:02:48;;;;;;;19.83;12.93;;;;;;;10.01;91.27;102941.94;5040531;28;20456;-82
2021/11/20 02:05:29;;;;;;;18.42;13.63;;;;;;;10.01;91.10;102944.56;5024529;28;20037;-82
2021/11/20 02:08:06;;;;;;;20.45;13.25;;;;;;;9.99;91.21;102940.19;5008543;28;20313;-82
2021/11/20 02:10:41;;;;;;;23.52;14.43;;;;;;;9.99;91.21;102941.94;5022316;28;20051;-82
2021/11/20 02:13:10;;;;;;;18.83;13.52;;;;;;;9.98;91.20;102946.28;5002712;28;20025;-82
2021/11/20 02:15:44;;;;;;;19.08;13.75;;;;;;;9.97;90.81;102941.94;5041075;28;20341;-82
2021/11/20 02:18:09;;;;;;;19.85;13.57;;;;;;;9.97;90.73;102941.94;5024382;28;20321;-82
2021/11/20 02:20:54;;;;;;;20.10;13.13;;;;;;;9.96;90.88;102937.59;5039840;28;20052;-82
2021/11/20 02:23:19;;;;;;;18.80;13.40;;;;;;;9.96;90.63;102941.94;5024060;28;20045;-82
2021/11/20 02:25:46;;;;;;;19.83;13.90;;;;;;;9.96;90.79;102947.19;5041922;28;20333;-82
2021/11/20 02:28:12;;;;;;;19.00;14.32;;;;;;;9.95;90.96;102942.81;5040390;28;20093;-82
2021/11/20 02:30:44;;;;;;;19.73;13.30;;;;;;;9.94;90.60;102944.56;5039653;28;20052;-82
2021/11/20 02:33:33;;;;;;;20.85;14.25;;;;;;;9.93;90.00;102947.19;5039160;28;20037;-82
2021/11/20 02:36:01;;;;;;;22.17;13.50;;;;;;;9.92;90.23;102938.47;5026531;28;20029;-82
2021/11/20 02:38:36;;;;;;;23.37;14.27;;;;;;;9.93;90.35;102934.09;5023018;28;20048;-82
2021/11/20 02:41:02;;;;;;;22.52;13.80;;;;;;;9.93;90.50;102928.88;5041618;28;20045;-82
2021/11/20 02:43:28;;;;;;;18.67;13.35;;;;;;;9.93;90.44;102928.88;5039673;28;20098;-82
2021/11/20 02:45:54;;;;;;;17.83;13.35;;;;;;;9.91;90.22;102918.41;5039758;28;20029;-82
2021/11/20 02:48:20;;;;;;;18.25;13.85;;;;;;;9.92;90.53;102919.28;5022793;28;20043;-82
2021/11/20 02:50:51;;;;;;;21.02;13.98;;;;;;;9.91;90.49;102910.56;5023986;28;20041;-82
2021/11/20 02:53:19;;;;;;;16.42;12.38;;;;;;;9.90;90.25;102910.59;5023198;28;20088;-82
2021/11/20 02:55:46;;;;;;;19.52;13.35;;;;;;;9.90;90.22;102910.59;5023463;28;20055;-82
2021/11/20 02:58:12;;;;;;;15.88;12.30;;;;;;;9.89;90.11;102907.06;5023371;28;20025;-82
2021/11/20 03:00:37;;;;;;;18.17;12.85;;;;;;;9.89;89.76;102914.94;5021974;28;20253;-82
2021/11/20 03:03:03;;;;;;;17.70;11.50;;;;;;;9.89;89.64;102909.69;5050719;28;20026;-82
2021/11/20 03:05:28;;;;;;;19.17;11.82;;;;;;;9.88;89.77;102904.50;5022508;28;20321;-82
2021/11/20 03:07:54;;;;;;;14.13;11.25;;;;;;;9.87;89.82;102906.22;5028930;28;20334;-82
2021/11/20 03:10:19;;;;;;;14.35;10.93;;;;;;;9.88;89.98;102907.97;5045134;28;20040;-82
2021/11/20 03:12:45;;;;;;;12.50;9.73;;;;;;;9.88;89.70;102899.25;5029244;28;20029;-82
2021/11/20 03:15:10;;;;;;;17.20;9.20;;;;;;;9.87;89.66;102894.88;5029246;28;20045;-82
2021/11/20 03:17:36;;;;;;;13.30;9.00;;;;;;;9.85;89.77;102901.88;5045538;28;20028;-82
2021/11/20 03:20:04;;;;;;;9.85;8.38;;;;;;;9.86;89.35;102906.22;5047183;28;20104;-82
2021/11/20 03:22:35;;;;;;;9.70;8.32;;;;;;;9.86;89.23;102907.13;5029007;28;20104;-82
2021/11/20 03:25:00;;;;;;;9.27;7.47;;;;;;;9.84;89.66;102895.78;5029538;28;20049;-82
2021/11/20 03:27:26;;;;;;;10.80;7.15;;;;;;;9.85;89.25;102896.66;5028585;28;20035;-82
2021/11/20 03:29:51;;;;;;;8.25;7.45;;;;;;;9.84;88.91;102892.28;5013004;28;20079;-82
2021/11/20 03:32:17;;;;;;;11.25;7.88;;;;;;;9.83;88.50;102887.94;5045264;28;20049;-82
2021/11/20 03:34:43;;;;;;;9.48;8.05;;;;;;;9.84;88.83;102889.66;5008823;28;20206;-82
2021/11/20 03:37:09;;;;;;;8.77;7.18;;;;;;;9.82;88.71;102884.44;5039494;28;20261;-82
2021/11/20 03:39:34;;;;;;;9.13;7.97;;;;;;;9.82;88.85;102886.19;5045464;28;20033;-82
2021/11/20 03:42:00;;;;;;;12.25;8.90;;;;;;;9.82;89.19;102880.94;5045275;28;20044;-82
2021/11/20 03:44:25;;;;;;;10.32;7.32;;;;;;;9.81;88.72;102880.09;5044673;28;20033;-82
2021/11/20 03:46:51;;;;;;;11.30;8.35;;;;;;;9.81;88.86;102877.47;5044210;28;20202;-82
2021/11/20 03:49:16;;;;;;;12.13;9.40;;;;;;;9.81;88.98;102880.09;5045135;28;20042;-82
2021/11/20 03:51:42;;;;;;;12.50;8.88;;;;;;;9.81;89.00;102874.84;5045164;28;20032;-82
2021/11/20 03:54:07;;;;;;;14.68;9.10;;;;;;;9.79;89.03;102868.75;5012311;28;20195;-82
2021/11/20 03:56:33;;;;;;;10.32;8.50;;;;;;;9.78;88.55;102872.25;5028786;28;20033;-82
2021/11/20 03:58:59;;;;;;;10.68;8.73;;;;;;;9.77;88.33;102878.38;5009819;28;20041;-82
2021/11/20 04:01:25;;;;;;;11.50;9.02;;;;;;;9.77;88.49;102874.00;5026905;28;20273;-82
2021/11/20 04:03:50;;;;;;;11.38;10.27;;;;;;;9.77;88.68;102875.75;5031221;28;20029;-82
2021/11/20 04:06:16;;;;;;;11.25;10.23;;;;;;;9.77;88.38;102873.13;5015493;28;20041;-82
2021/11/20 04:08:43;;;;;;;11.68;10.50;;;;;;;9.74;87.98;102874.00;5031640;28;20103;-82
2021/11/20 04:11:09;;;;;;;12.38;11.13;;;;;;;9.74;88.00;102865.28;5048018;28;20020;-82
2021/11/20 04:13:35;;;;;;;12.68;10.50;;;;;;;9.74;88.01;102870.53;5015407;28;20060;-82
2021/11/20 04:16:01;;;;;;;12.20;10.90;;;;;;;9.72;88.04;102870.53;5032406;28;20040;-82
2021/11/20 04:18:26;;;;;;;12.32;11.23;;;;;;;9.72;88.21;102872.28;5028968;28;20037;-82
2021/11/20 04:20:52;;;;;;;13.23;11.82;;;;;;;9.71;88.04;102879.25;5063512;28;20051;-82
2021/11/20 04:23:17;;;;;;;14.82;12.55;;;;;;;9.70;87.74;102867.06;5028585;28;20041;-82
2021/11/20 04:25:43;;;;;;;14.82;13.10;;;;;;;9.70;87.73;102867.06;5029002;28;20107;-82
2021/11/20 04:28:08;;;;;;;15.10;12.70;;;;;;;9.70;87.87;102860.97;5063442;28;20099;-82
2021/11/20 04:30:34;;;;;;;15.60;13.45;;;;;;;9.70;87.98;102858.34;5028879;28;20032;-82
2021/11/20 04:33:00;;;;;;;15.40;13.10;;;;;;;9.70;87.96;102856.59;5026401;28;20334;-82
2021/11/20 04:35:25;;;;;;;16.15;14.38;;;;;;;9.71;88.40;102857.44;5045198;28;20033;-82
2021/11/20 04:37:51;;;;;;;14.45;12.95;;;;;;;9.70;88.15;102853.97;5028505;28;20320;-82
2021/11/20 04:40:16;;;;;;;16.42;13.57;;;;;;;9.70;87.97;102850.50;5029262;28;20025;-82
2021/11/20 04:42:42;;;;;;;14.90;13.30;;;;;;;9.70;88.16;102838.28;5028802;28;20037;-82
2021/11/20 04:45:09;;;;;;;21.08;13.98;;;;;;;9.70;88.61;102840.03;5045548;28;20051;-82
2021/11/20 04:47:35;;;;;;;15.00;13.40;;;;;;;9.71;88.57;102839.13;5059726;28;20052;-82
2021/11/20 04:50:00;;;;;;;16.27;13.75;;;;;;;9.70;88.44;102840.88;5045318;28;20037;-82
2021/11/20 04:52:26;;;;;;;16.63;13.48;;;;;;;9.69;88.11;102846.13;5044721;28;20047;-82
2021/11/20 04:54:52;;;;;;;17.75;14.05;;;;;;;9.69;88.00;102852.22;5045014;28;20341;-82
2021/11/20 04:57:17;;;;;;;18.75;14.93;;;;;;;9.69;88.36;102854.84;5044894;28;20227;-82
2021/11/20 04:59:42;;;;;;;17.63;15.02;;;;;;;9.68;88.02;102850.50;5027932;28;20048;-82
2021/11/20 05:02:09;;;;;;;18.10;14.57;;;;;;;9.67;88.02;102846.13;5029143;28;20025;-82
2021/11/20 05:04:34;;;;;;;20.65;15.27;;;;;;;9.68;87.69;102841.75;5062607;28;20108;-82
2021/11/20 05:07:00;;;;;;;18.63;14.30;;;;;;;9.68;88.02;102855.72;5012584;28;20048;-82
2021/11/20 05:09:25;;;;;;;16.33;14.13;;;;;;;9.67;87.68;102856.59;5028312;28;20412;-82
2021/11/20 05:11:51;;;;;;;18.45;13.98;;;;;;;9.66;88.06;102844.41;5028462;28;20265;-82
2021/11/20 05:14:16;;;;;;;16.13;13.85;;;;;;;9.67;87.84;102842.66;5044789;28;20079;-81
2021/11/20 05:16:42;;;;;;;18.67;15.45;;;;;;;9.67;87.89;102850.50;5027802;28;20358;-82
2021/11/20 05:19:07;;;;;;;16.48;14.68;;;;;;;9.66;87.84;102840.91;5044969;28;20056;-82
2021/11/20 05:21:33;;;;;;;16.80;13.88;;;;;;;9.65;87.64;102832.19;5027502;28;20398;-82
2021/11/20 05:23:59;;;;;;;15.63;13.68;;;;;;;9.65;87.47;102832.19;5044357;28;20063;-82
2021/11/20 05:26:24;;;;;;;18.27;13.80;;;;;;;9.66;87.50;102825.19;5060334;28;20041;-82
2021/11/20 05:28:58;;;;;;;18.98;14.68;;;;;;;9.65;87.54;102828.72;5027509;28;20032;-82
2021/11/20 05:31:24;;;;;;;18.02;13.68;;;;;;;9.64;87.03;102820.00;5045989;28;20093;-82
2021/11/20 05:33:51;;;;;;;15.65;14.05;;;;;;;9.63;87.29;102815.63;5025519;28;20037;-82
2021/11/20 05:36:17;;;;;;;14.88;13.40;;;;;;;9.63;86.97;102807.78;5044204;28;20037;-82
2021/11/20 05:38:42;;;;;;;16.83;15.18;;;;;;;9.63;86.92;102810.41;5028150;28;20074;-82
2021/11/20 05:41:08;;;;;;;16.70;14.63;;;;;;;9.62;87.27;102813.88;5035131;28;20021;-82
2021/11/20 05:43:33;;;;;;;17.10;13.70;;;;;;;9.62;87.41;102803.41;5007636;28;20414;-82
2021/11/20 05:46:05;;;;;;;15.98;14.27;;;;;;;9.61;87.31;102801.69;5044145;28;20091;-82
2021/11/20 05:48:31;;;;;;;14.95;13.40;;;;;;;9.61;87.51;102797.31;5027872;28;20040;-82
2021/11/20 05:50:56;;;;;;;15.25;13.85;;;;;;;9.61;87.31;102804.31;5011026;28;20055;-82
2021/11/20 05:53:23;;;;;;;15.52;13.55;;;;;;;9.59;87.21;102793.00;5009185;28;20033;-82
2021/11/20 05:55:49;;;;;;;14.65;13.15;;;;;;;9.60;87.37;102793.00;5026372;28;20036;-82
2021/11/20 05:58:15;;;;;;;14.80;13.30;;;;;;;9.60;87.16;102792.09;5027580;28;20045;-82
2021/11/20 06:00:42;;;;;;;15.60;13.80;;;;;;;9.60;87.21;102786.88;5043198;28;20068;-82
2021/11/20 06:03:09;;;;;;;17.02;13.70;;;;;;;9.59;87.09;102786.00;5026700;28;20041;-81
2021/11/20 06:05:34;;;;;;;15.82;14.23;;;;;;;9.58;87.00;102786.00;5043207;28;20033;-82
2021/11/20 06:08:00;;;;;;;18.13;14.60;;;;;;;9.59;87.33;102774.69;5026666;28;20041;-82
2021/11/20 06:10:26;;;;;;;16.15;14.43;;;;;;;9.59;87.32;102775.53;5026041;28;20108;-81
2021/11/20 06:12:51;;;;;;;16.05;14.35;;;;;;;9.61;87.57;102773.78;5043610;28;20297;-82
2021/11/20 06:15:17;;;;;;;18.92;14.70;;;;;;;9.60;87.50;102773.78;5043156;28;20368;-82
2021/11/20 06:17:42;;;;;;;21.60;15.57;;;;;;;9.60;87.40;102768.56;5056823;28;20048;-82
2021/11/20 06:20:08;;;;;;;21.52;16.33;;;;;;;9.61;87.57;102772.91;5026878;28;20039;-81
2021/11/20 06:22:34;;;;;;;21.63;16.50;;;;;;;9.59;87.10;102775.53;5010659;28;20062;-81
2021/11/20 06:24:59;;;;;;;23.10;18.52;;;;;;;9.58;87.10;102765.94;5043264;28;20041;-81
2021/11/20 06:27:25;;;;;;;29.45;20.42;;;;;;;9.57;87.27;102772.06;5043346;28;20043;-82
2021/11/20 06:29:50;;;;;;;31.63;23.45;;;;;;;9.55;87.17;102760.75;5043785;28;20037;-82
2021/11/20 06:32:16;;;;;;;37.72;23.70;;;;;;;9.55;87.10;102757.25;5040199;28;20032;-81
2021/11/20 06:34:41;;;;;;;31.85;24.20;;;;;;;9.55;86.61;102752.00;5059146;28;20350;-82
2021/11/20 06:37:07;;;;;;;34.70;24.35;;;;;;;9.53;86.73;102752.03;5061272;28;20029;-82
2021/11/20 06:39:32;;;;;;;37.72;25.92;;;;;;;9.54;86.71;102760.75;5026913;28;20052;-81
2021/11/20 06:41:58;;;;;;;34.17;24.48;;;;;;;9.53;87.03;102756.38;5061108;28;20041;-82
2021/11/20 06:44:24;;;;;;;37.75;26.10;;;;;;;9.53;87.20;102759.00;5025664;28;20364;-82
2021/11/20 06:46:49;;;;;;;36.67;25.60;;;;;;;9.52;87.19;102755.53;5024496;28;20040;-82
2021/11/20 06:49:15;;;;;;;37.47;25.98;;;;;;;9.52;87.16;102760.75;5042048;28;20070;-82
2021/11/20 06:51:40;;;;;;;39.95;26.25;;;;;;;9.52;87.38;102755.53;5008896;28;20025;-81
2021/11/20 06:54:06;;;;;;;34.75;24.42;;;;;;;9.53;87.38;102765.13;5042116;28;20260;-81
2021/11/20 06:56:43;;;;;;;39.65;25.65;;;;;;;9.51;87.99;102759.00;5023533;28;20034;-82
2021/11/20 06:59:17;;;;;;;36.55;24.33;;;;;;;9.53;88.01;102759.00;5040455;28;20056;-81
2021/11/20 07:01:42;;;;;;;34.90;23.20;;;;;;;9.54;88.20;102759.00;5043503;28;20116;-81
2021/11/20 07:04:12;;;;;;;34.10;24.10;;;;;;;9.54;88.01;102758.13;5037990;28;20029;-81
2021/11/20 07:06:47;;;;;;;33.67;24.27;;;;;;;9.54;88.24;102760.75;5026369;28;20021;-81
2021/11/20 07:09:12;;;;;;;27.67;21.15;;;;;;;9.54;88.23;102760.75;5026235;28;20055;-82
2021/11/20 07:11:38;;;;;;;29.67;21.25;;;;;;;9.54;88.13;102758.13;5044731;28;20060;-82
2021/11/20 07:14:04;;;;;;;23.27;17.02;;;;;;;9.53;87.87;102753.78;5024539;28;20333;-82
2021/11/20 07:16:29;;;;;;;20.42;16.27;;;;;;;9.51;88.08;102756.38;5009379;28;20048;-82
2021/11/20 07:18:55;;;;;;;22.10;14.55;;;;;;;9.52;87.90;102752.06;5027009;28;20037;-82
2021/11/20 07:21:24;;;;;;;18.35;13.80;;;;;;;9.52;87.87;102752.91;5041761;28;20059;-82
2021/11/20 07:23:51;;;;;;;24.58;13.88;;;;;;;9.52;87.70;102758.16;5027032;28;20100;-82
2021/11/20 07:26:17;;;;;;;20.42;15.43;;;;;;;9.51;87.83;102759.00;5026250;28;20112;-82
2021/11/20 07:28:42;;;;;;;17.02;13.70;;;;;;;9.53;87.83;102753.78;5041825;28;20041;-82
2021/11/20 07:31:08;;;;;;;17.75;14.00;;;;;;;9.51;87.86;102748.53;5058142;28;20289;-82
2021/11/20 07:33:33;;;;;;;18.05;14.00;;;;;;;9.54;87.75;102745.06;5033746;28;20056;-82
2021/11/20 07:36:00;;;;;;;23.17;14.68;;;;;;;9.53;88.20;102738.97;5041560;28;20033;-82
2021/11/20 07:38:31;;;;;;;20.08;14.77;;;;;;;9.53;87.83;102738.97;5024231;28;20051;-82
2021/11/20 07:40:57;;;;;;;23.60;14.52;;;;;;;9.54;87.99;102737.22;5041440;28;20029;-82
2021/11/20 07:43:22;;;;;;;20.02;14.20;;;;;;;9.54;87.84;102731.97;5041248;28;20033;-82
2021/11/20 07:45:48;;;;;;;19.88;14.68;;;;;;;9.54;87.92;102729.38;5039704;28;20204;-82
2021/11/20 07:48:15;;;;;;;20.17;15.07;;;;;;;9.54;87.72;102730.22;5023583;28;20021;-82
2021/11/20 07:50:41;;;;;;;17.73;14.95;;;;;;;9.54;88.02;102730.22;5005413;28;20098;-82
2021/11/20 07:53:07;;;;;;;18.08;14.30;;;;;;;9.55;88.31;102731.97;5021606;28;20101;-81
2021/11/20 07:55:32;;;;;;;16.70;14.70;;;;;;;9.55;87.75;102729.38;5025881;28;20220;-82
2021/11/20 07:57:58;;;;;;;16.77;14.45;;;;;;;9.57;87.72;102731.97;5044432;28;20043;-82
2021/11/20 08:00:24;;;;;;;19.48;15.05;;;;;;;9.57;87.86;102724.13;5058413;28;20114;-81
2021/11/20 08:02:49;;;;;;;21.08;14.88;;;;;;;9.56;88.05;102719.75;5033818;28;20420;-82
2021/11/20 08:05:14;;;;;;;21.38;15.95;;;;;;;9.57;88.25;102711.91;5009956;28;20073;-82
2021/11/20 08:07:40;;;;;;;22.08;14.75;;;;;;;9.58;88.27;102725.84;5033649;28;20044;-81
2021/11/20 08:10:08;;;;;;;17.80;14.52;;;;;;;9.58;88.17;102718.00;5011496;28;20025;-82
2021/11/20 08:12:33;;;;;;;24.95;15.27;;;;;;;9.59;88.31;102718.00;5026882;28;20025;-82
2021/11/20 08:14:59;;;;;;;25.13;15.43;;;;;;;9.59;88.22;102706.66;5044599;28;20332;-82
2021/11/20 08:17:24;;;;;;;19.55;15.25;;;;;;;9.60;88.27;102706.66;5061635;28;20047;-81
2021/11/20 08:19:50;;;;;;;20.85;15.95;;;;;;;9.60;88.17;102700.53;5022765;28;20032;-81
2021/11/20 08:22:15;;;;;;;22.45;15.73;;;;;;;9.61;88.33;102697.91;5024227;28;20033;-82
2021/11/20 08:24:41;;;;;;;25.27;16.23;;;;;;;9.62;88.52;102698.78;5053726;28;20070;-82
2021/11/20 08:27:09;;;;;;;21.15;16.52;;;;;;;9.63;88.38;102697.06;5047860;28;20378;-82
2021/11/20 08:29:37;;;;;;;23.60;17.10;;;;;;;9.63;88.51;102686.59;5042848;28;20051;-82
2021/11/20 08:32:04;;;;;;;26.08;17.33;;;;;;;9.64;88.49;102699.66;5041107;28;20306;-82
2021/11/20 08:34:30;;;;;;;25.10;18.15;;;;;;;9.64;88.76;102689.19;5002440;28;20148;-82
2021/11/20 08:36:55;;;;;;;23.23;17.33;;;;;;;9.66;88.56;102689.16;5043501;28;20344;-82
2021/11/20 08:39:21;;;;;;;23.60;15.48;;;;;;;9.66;88.59;102683.94;5027123;28;20029;-82
2021/11/20 08:41:46;;;;;;;25.75;18.65;;;;;;;9.67;88.72;102672.59;5040358;28;20328;-82
2021/11/20 08:44:12;;;;;;;29.38;18.60;;;;;;;9.68;88.60;102676.94;5043285;28;20039;-82
2021/11/20 08:46:38;;;;;;;27.42;18.25;;;;;;;9.69;88.62;102682.16;5044323;28;20253;-82
2021/11/20 08:49:03;;;;;;;26.30;18.50;;;;;;;9.69;88.78;102684.78;5041013;28;20037;-82
2021/11/20 08:51:30;;;;;;;26.55;18.88;;;;;;;9.71;88.69;102682.16;5026333;28;20033;-82
2021/11/20 08:53:55;;;;;;;29.40;19.77;;;;;;;9.71;88.64;102684.78;5060608;28;20083;-82
2021/11/20 08:56:21;;;;;;;28.55;19.63;;;;;;;9.72;88.79;102682.16;5026064;28;20341;-82
2021/11/20 08:58:47;;;;;;;31.17;19.67;;;;;;;9.72;88.82;102676.06;5026544;28;20032;-82
2021/11/20 09:01:46;;;;;;;30.63;19.73;;;;;;;9.72;89.02;102671.69;5023801;28;20287;-82
2021/11/20 09:04:37;;;;;;;37.50;20.70;;;;;;;9.73;88.84;102668.19;5053163;28;20070;-82
2021/11/20 09:07:11;;;;;;;31.25;19.60;;;;;;;9.73;88.98;102670.81;5025103;28;20036;-81
2021/11/20 09:09:43;;;;;;;33.00;20.10;;;;;;;9.74;88.86;102663.81;5026581;28;20032;-82
2021/11/20 09:12:13;;;;;;;37.70;20.58;;;;;;;9.74;89.15;102662.06;5043457;28;20029;-81
2021/11/20 09:14:45;;;;;;;33.47;21.00;;;;;;;9.74;88.92;102654.22;5043047;28;20224;-81
2021/11/20 09:17:12;;;;;;;33.58;20.63;;;;;;;9.74;89.24;102651.59;5027599;28;20044;-82
2021/11/20 09:19:37;;;;;;;34.88;19.88;;;;;;;9.77;89.01;102656.81;5027073;28;20090;-81
2021/11/20 09:22:03;;;;;;;34.05;20.65;;;;;;;9.76;89.18;102652.44;5043737;28;20041;-82
2021/11/20 09:24:30;;;;;;;31.27;19.50;;;;;;;9.78;89.12;102655.06;5039215;28;20033;-82
2021/11/20 09:26:56;;;;;;;30.13;17.77;;;;;;;9.79;89.32;102646.34;5034586;28;20029;-82
2021/11/20 09:29:22;;;;;;;33.70;18.25;;;;;;;9.79;89.30;102643.72;5026231;28;20044;-82
2021/11/20 09:31:48;;;;;;;29.73;17.92;;;;;;;9.80;89.41;102648.06;5027208;28;20037;-82
2021/11/20 09:34:16;;;;;;;29.55;18.23;;;;;;;9.81;89.38;102649.81;5041078;28;20062;-81
2021/11/20 09:36:41;;;;;;;31.17;18.80;;;;;;;9.82;89.14;102646.28;5039642;28;20056;-82
2021/11/20 09:39:07;;;;;;;26.90;17.83;;;;;;;9.84;89.36;102644.56;5058757;28;20100;-82
2021/11/20 09:41:51;;;;;;;25.25;16.60;;;;;;;9.84;89.28;102649.78;5023396;28;20036;-82
2021/11/20 09:44:17;;;;;;;27.95;17.38;;;;;;;9.86;89.33;102653.25;5058482;28;20028;-82
2021/11/20 09:46:45;;;;;;;25.25;16.40;;;;;;;9.87;89.27;102657.59;5037197;28;20194;-81
2021/11/20 09:49:23;;;;;;;28.45;18.25;;;;;;;9.88;89.13;102651.50;5031856;28;20037;-82
2021/11/20 09:51:50;;;;;;;27.08;18.42;;;;;;;9.88;89.38;102651.50;5009675;28;20032;-82
2021/11/20 09:54:19;;;;;;;29.15;18.15;;;;;;;9.89;89.30;102647.13;5005030;28;20025;-82
2021/11/20 09:57:00;;;;;;;24.75;17.33;;;;;;;9.90;89.41;102646.25;5036869;28;20036;-81
2021/11/20 09:59:38;;;;;;;25.77;19.27;;;;;;;9.90;89.53;102643.63;5039140;28;20045;-81
2021/11/20 10:02:08;;;;;;;32.42;20.02;;;;;;;9.91;89.44;102651.44;5038373;28;20082;-82
2021/11/20 10:04:53;;;;;;;28.17;19.02;;;;;;;9.91;89.54;102643.59;5041809;28;20040;-82
2021/11/20 10:07:29;;;;;;;29.65;18.88;;;;;;;9.91;89.51;102638.34;5043897;28;20047;-83
2021/11/20 10:10:26;;;;;;;29.08;17.98;;;;;;;9.92;89.31;102629.63;5033811;28;20052;-82
2021/11/20 10:13:13;;;;;;;26.15;17.92;;;;;;;9.94;89.27;102625.25;5035828;28;20232;-82
2021/11/20 10:16:00;;;;;;;25.15;17.90;;;;;;;9.95;89.14;102626.13;5045647;28;20068;-84
2021/11/20 10:18:38;;;;;;;26.98;18.48;;;;;;;9.94;89.54;102620.03;5041292;28;20347;-83
2021/11/20 10:21:37;;;;;;;21.73;15.32;;;;;;;9.96;89.24;102620.00;5027693;28;20037;-82
2021/11/20 10:24:24;;;;;;;20.50;14.73;;;;;;;9.96;89.35;102620.88;5026750;28;20048;-83
2021/11/20 10:27:01;;;;;;;26.83;16.70;;;;;;;9.97;89.21;102622.63;5035581;28;20040;-82
2021/11/20 10:29:40;;;;;;;25.25;17.65;;;;;;;9.97;89.25;102616.53;5055008;28;20041;-83
2021/11/20 10:32:26;;;;;;;29.60;18.40;;;;;;;9.97;89.60;102614.75;5034752;28;20100;-82
2021/11/20 10:34:54;;;;;;;25.08;17.90;;;;;;;9.98;89.44;102616.47;5040958;28;20028;-82
2021/11/20 10:37:27;;;;;;;27.30;18.65;;;;;;;10.00;89.56;102613.84;5013019;28;20263;-81
2021/11/20 10:39:59;;;;;;;26.70;17.67;;;;;;;9.99;89.74;102610.38;5027741;28;20051;-80
2021/11/20 10:42:36;;;;;;;27.27;17.30;;;;;;;10.01;89.76;102609.50;5039845;28;20025;-80
2021/11/20 10:45:11;;;;;;;30.88;18.60;;;;;;;10.00;89.64;102611.25;5020738;28;20029;-80
2021/11/20 10:48:13;;;;;;;30.30;18.50;;;;;;;10.02;89.71;102608.59;5025026;28;20052;-80
2021/11/20 10:50:46;;;;;;;28.45;18.27;;;;;;;10.01;89.73;102605.13;5028592;28;20039;-80
2021/11/20 10:53:57;;;;;;;27.25;17.33;;;;;;;10.02;89.89;102600.75;5024350;28;20036;-80
2021/11/20 10:56:32;;;;;;;38.78;19.20;;;;;;;10.02;89.88;102604.22;5037574;28;20036;-80
2021/11/20 10:59:05;;;;;;;27.35;17.27;;;;;;;10.02;89.85;102601.63;5023987;28;20116;-81
2021/11/20 11:01:40;;;;;;;29.90;18.05;;;;;;;10.03;89.83;102592.03;5060100;28;20040;-80
2021/11/20 11:04:16;;;;;;;29.33;17.52;;;;;;;10.04;89.89;102588.50;5041947;28;20064;-81
2021/11/20 11:06:57;;;;;;;33.58;18.40;;;;;;;10.04;89.92;102573.69;5026297;28;20221;-80
2021/11/20 11:09:30;;;;;;;30.67;17.52;;;;;;;10.05;90.01;102571.94;5041887;28;20016;-81
2021/11/20 11:12:13;;;;;;;32.40;19.38;;;;;;;10.04;89.96;102568.47;5026161;28;20029;-81
2021/11/20 11:15:01;;;;;;;36.65;19.25;;;;;;;10.04;90.14;102563.22;5029040;28;20017;-81
2021/11/20 11:17:58;;;;;;;32.38;18.63;;;;;;;10.04;90.17;102564.97;5059853;28;20033;-81
2021/11/20 11:21:12;;;;;;;33.63;19.10;;;;;;;10.05;90.25;102564.09;5025999;28;20492;-81
2021/11/20 11:24:09;;;;;;;36.22;19.38;;;;;;;10.04;90.38;102550.13;4976344;28;20250;-82
2021/11/20 11:26:37;;;;;;;36.65;20.05;;;;;;;10.04;90.48;102549.25;5053055;28;20067;-85